createdAt,value
2022-10-23T00:01:00.575Z,101529.91
2022-10-23T00:02:04.093Z,101534.33
2022-10-23T00:03:07.270Z,101529.73
2022-10-23T00:04:19.043Z,101535.00
2022-10-23T00:05:23.083Z,101528.72
2022-10-23T00:06:27.099Z,101530.41
2022-10-23T00:08:33.204Z,101523.10
2022-10-23T00:09:36.189Z,101530.41
2022-10-23T00:10:41.620Z,101523.10
2022-10-23T00:11:47.277Z,101523.92
2022-10-23T00:12:51.005Z,101522.25
2022-10-23T00:13:57.279Z,101512.02
2022-10-23T00:15:00.446Z,101515.76
2022-10-23T00:16:03.862Z,101512.86
2022-10-23T00:17:06.845Z,101512.86
2022-10-23T00:18:09.817Z,101507.42
2022-10-23T00:19:12.766Z,101509.97
2022-10-23T00:20:17.716Z,101501.81
2022-10-23T00:21:21.116Z,101497.39
2022-10-23T00:22:24.261Z,101502.66
2022-10-23T00:23:27.481Z,101489.91
2022-10-23T00:24:30.475Z,101497.05
2022-10-23T00:25:33.551Z,101493.27
2022-10-23T00:26:38.790Z,101495.99
2022-10-23T00:27:42.441Z,101493.09
2022-10-23T00:28:49.231Z,101489.36
2022-10-23T00:29:52.523Z,101492.92
2022-10-23T00:30:55.728Z,101486.46
2022-10-23T00:31:58.930Z,101481.66
2022-10-23T00:33:02.323Z,101478.94
2022-10-23T00:34:07.186Z,101486.08
2022-10-23T00:35:11.536Z,101484.20
2022-10-23T00:36:18.398Z,101484.03
2022-10-23T00:37:21.579Z,101476.72
2022-10-23T00:38:24.779Z,101483.83
2022-10-23T00:39:28.282Z,101481.95
2022-10-23T00:40:31.316Z,101480.08
2022-10-23T00:41:34.616Z,101481.78
2022-10-23T00:42:37.718Z,101481.60
2022-10-23T00:44:02.602Z,101482.45
2022-10-23T00:45:09.273Z,101483.30
2022-10-23T00:46:12.535Z,101480.58
2022-10-23T00:47:16.085Z,101479.52
2022-10-23T00:48:19.508Z,101478.50
2022-10-23T00:49:22.972Z,101476.63
2022-10-23T00:50:28.576Z,101480.02
2022-10-23T00:51:43.003Z,101475.42
2022-10-23T00:52:48.743Z,101474.41
2022-10-23T00:54:01.294Z,101479.00
2022-10-23T00:55:01.765Z,101473.55
2022-10-23T00:56:05.632Z,101466.23
2022-10-23T00:57:12.286Z,101470.45
2022-10-23T00:58:17.415Z,101466.88
2022-10-23T00:59:21.753Z,101462.28
2022-10-23T01:00:28.205Z,101468.58
2022-10-23T01:01:31.491Z,101457.69
2022-10-23T01:02:34.751Z,101463.13
2022-10-23T01:03:37.788Z,101459.39
2022-10-23T01:04:41.197Z,101452.07
2022-10-23T01:06:57.308Z,101456.67
2022-10-23T01:08:06.953Z,101451.05
2022-10-23T01:09:19.576Z,101453.77
2022-10-23T01:10:41.209Z,101450.20
2022-10-23T01:12:08.831Z,101448.33
2022-10-23T01:13:18.300Z,101453.77
2022-10-23T01:14:34.248Z,101444.94
2022-10-23T01:15:40.940Z,101445.78
2022-10-23T01:16:56.675Z,101445.78
2022-10-23T01:18:09.404Z,101445.78
2022-10-23T01:19:22.856Z,101445.78
2022-10-23T01:20:37.805Z,101442.21
2022-10-23T01:21:56.603Z,101445.78
2022-10-23T01:23:15.034Z,101444.94
2022-10-23T01:24:31.374Z,101444.94
2022-10-23T01:26:00.190Z,101443.23
2022-10-23T01:27:15.812Z,101439.67
2022-10-23T01:28:31.189Z,101441.54
2022-10-23T01:29:37.692Z,101440.69
2022-10-23T01:30:43.819Z,101432.73
2022-10-23T01:31:59.644Z,101442.56
2022-10-23T01:33:06.230Z,101439.67
2022-10-23T01:34:14.589Z,101438.82
2022-10-23T01:35:31.144Z,101433.37
2022-10-23T01:36:39.249Z,101436.09
2022-10-23T01:37:45.529Z,101430.66
2022-10-23T01:38:55.917Z,101436.30
2022-10-23T01:40:03.170Z,101433.37
2022-10-23T01:41:18.200Z,101430.66
2022-10-23T01:42:24.828Z,101433.37
2022-10-23T01:43:31.440Z,101428.95
2022-10-23T01:44:41.285Z,101431.68
2022-10-23T01:45:48.496Z,101428.78
2022-10-23T01:46:54.450Z,101431.50
2022-10-23T01:47:58.913Z,101430.48
2022-10-23T01:49:03.603Z,101425.88
2022-10-23T01:50:09.527Z,101426.73
2022-10-23T01:51:14.741Z,101431.33
2022-10-23T01:52:21.190Z,101422.98
2022-10-23T01:53:30.218Z,101421.11
2022-10-23T01:54:37.022Z,101424.65
2022-10-23T01:56:49.899Z,101419.87
2022-10-23T01:57:55.663Z,101416.13
2022-10-23T01:59:04.067Z,101419.70
2022-10-23T02:00:12.996Z,101409.66
2022-10-23T02:01:30.634Z,101416.77
2022-10-23T02:02:37.292Z,101418.47
2022-10-23T02:03:43.380Z,101413.02
2022-10-23T02:04:49.981Z,101412.00
2022-10-23T02:05:52.971Z,101402.98
2022-10-23T02:06:56.392Z,101412.00
2022-10-23T02:08:00.802Z,101410.97
2022-10-23T02:09:04.782Z,101409.94
2022-10-23T02:10:09.327Z,101411.64
2022-10-23T02:11:17.948Z,101407.01
2022-10-23T02:14:05.494Z,101398.20
2022-10-23T02:15:17.811Z,101408.53
2022-10-23T02:16:47.090Z,101399.52
2022-10-23T02:17:56.287Z,101403.08
2022-10-23T02:19:21.188Z,101403.08
2022-10-23T02:20:30.639Z,101404.78
2022-10-23T02:21:36.536Z,101401.21
2022-10-23T02:22:43.333Z,101398.48
2022-10-23T02:23:55.326Z,101393.22
2022-10-23T02:25:13.132Z,101402.41
2022-10-23T02:26:23.463Z,101395.94
2022-10-23T02:27:35.941Z,101390.50
2022-10-23T02:28:44.960Z,101391.34
2022-10-23T02:29:57.302Z,101390.32
2022-10-23T02:31:02.800Z,101393.89
2022-10-23T02:32:09.475Z,101383.00
2022-10-23T02:33:14.016Z,101390.98
2022-10-23T02:34:18.074Z,101376.32
2022-10-23T02:35:24.327Z,101384.30
2022-10-23T02:36:29.627Z,101389.75
2022-10-23T02:37:33.740Z,101387.88
2022-10-23T02:38:42.875Z,101384.12
2022-10-23T02:39:46.028Z,101384.12
2022-10-23T02:40:49.048Z,101374.94
2022-10-23T02:41:55.542Z,101378.50
2022-10-23T02:43:14.015Z,101375.78
2022-10-23T02:44:32.934Z,101371.36
2022-10-23T02:46:01.898Z,101372.39
2022-10-23T02:47:08.349Z,101377.17
2022-10-23T02:48:21.022Z,101376.71
2022-10-23T02:49:50.313Z,101374.17
2022-10-23T02:51:09.372Z,101376.25
2022-10-23T02:52:18.701Z,101370.14
2022-10-23T02:53:37.388Z,101367.78
2022-10-23T02:54:50.230Z,101362.34
2022-10-23T02:56:22.466Z,101364.42
2022-10-23T02:57:28.947Z,101364.59
2022-10-23T02:58:38.552Z,101355.59
2022-10-23T03:00:01.448Z,101355.80
2022-10-23T03:01:08.069Z,101360.39
2022-10-23T03:02:20.706Z,101355.13
2022-10-23T03:04:40.649Z,101353.14
2022-10-23T03:05:45.638Z,101351.95
2022-10-23T03:06:51.420Z,101348.56
2022-10-23T03:07:54.779Z,101352.30
2022-10-23T03:09:00.798Z,101344.32
2022-10-23T03:10:04.052Z,101348.91
2022-10-23T03:11:07.108Z,101342.66
2022-10-23T03:12:09.976Z,101342.84
2022-10-23T03:13:12.919Z,101342.84
2022-10-23T03:14:19.157Z,101342.84
2022-10-23T03:15:22.193Z,101336.55
2022-10-23T03:16:25.528Z,101331.11
2022-10-23T03:17:29.869Z,101329.23
2022-10-23T03:18:34.237Z,101330.26
2022-10-23T03:19:37.827Z,101326.52
2022-10-23T03:20:40.862Z,101322.77
2022-10-23T03:21:43.787Z,101330.92
2022-10-23T03:22:46.771Z,101327.99
2022-10-23T03:23:49.928Z,101325.27
2022-10-23T03:24:54.690Z,101331.56
2022-10-23T03:25:57.626Z,101327.81
2022-10-23T03:27:05.007Z,101324.91
2022-10-23T03:28:08.108Z,101320.32
2022-10-23T03:29:11.223Z,101321.17
2022-10-23T03:30:19.303Z,101329.97
2022-10-23T03:31:24.053Z,101317.21
2022-10-23T03:32:29.124Z,101324.34
2022-10-23T03:33:32.264Z,101327.73
2022-10-23T03:34:37.285Z,101321.23
2022-10-23T03:35:40.804Z,101320.20
2022-10-23T03:36:43.868Z,101322.92
2022-10-23T03:37:46.975Z,101316.45
2022-10-23T03:38:49.945Z,101321.72
2022-10-23T03:39:52.973Z,101316.28
2022-10-23T03:40:55.890Z,101318.78
2022-10-23T03:41:58.730Z,101307.91
2022-10-23T03:43:01.759Z,101314.19
2022-10-23T03:44:06.578Z,101318.78
2022-10-23T03:45:09.733Z,101307.91
2022-10-23T03:46:13.066Z,101304.16
2022-10-23T03:47:16.209Z,101310.63
2022-10-23T03:48:19.706Z,101304.16
2022-10-23T03:49:22.762Z,101305.84
2022-10-23T03:50:25.789Z,101307.54
2022-10-23T03:51:30.155Z,101304.81
2022-10-23T03:52:33.638Z,101304.64
2022-10-23T03:53:36.643Z,101300.04
2022-10-23T03:54:39.669Z,101308.84
2022-10-23T03:55:44.095Z,101306.12
2022-10-23T03:56:47.259Z,101301.52
2022-10-23T03:57:50.187Z,101305.94
2022-10-23T03:58:55.240Z,101305.09
2022-10-23T04:00:00.207Z,101303.03
2022-10-23T04:01:05.092Z,101302.82
2022-10-23T04:02:08.206Z,101296.34
2022-10-23T04:03:11.223Z,101296.16
2022-10-23T04:04:14.195Z,101292.41
2022-10-23T04:05:17.451Z,101291.39
2022-10-23T04:06:22.201Z,101286.75
2022-10-23T04:07:25.284Z,101283.01
2022-10-23T04:08:28.199Z,101283.85
2022-10-23T04:09:31.211Z,101289.11
2022-10-23T04:10:34.288Z,101287.23
2022-10-23T04:11:37.302Z,101294.37
2022-10-23T04:12:40.359Z,101290.59
2022-10-23T04:13:43.576Z,101292.11
2022-10-23T04:14:46.673Z,101286.48
2022-10-23T04:15:51.112Z,101290.89
2022-10-23T04:16:54.166Z,101289.83
2022-10-23T04:17:57.189Z,101282.33
2022-10-23T04:19:00.153Z,101276.70
2022-10-23T04:20:03.524Z,101280.27
2022-10-23T04:21:06.491Z,101279.20
2022-10-23T04:22:09.441Z,101282.59
2022-10-23T04:23:12.478Z,101279.88
2022-10-23T04:24:16.938Z,101276.96
2022-10-23T04:25:20.039Z,101277.81
2022-10-23T04:26:23.176Z,101276.78
2022-10-23T04:27:27.423Z,101274.05
2022-10-23T04:28:31.573Z,101271.33
2022-10-23T04:29:34.535Z,101274.05
2022-10-23T04:30:37.665Z,101272.99
2022-10-23T04:31:40.752Z,101267.55
2022-10-23T04:32:43.876Z,101263.98
2022-10-23T04:33:47.011Z,101271.97
2022-10-23T04:34:51.882Z,101268.21
2022-10-23T04:35:54.975Z,101269.06
2022-10-23T04:36:57.901Z,101268.02
2022-10-23T04:38:00.727Z,101265.30
2022-10-23T04:39:05.025Z,101261.55
2022-10-23T04:40:09.368Z,101259.64
2022-10-23T04:41:13.766Z,101264.05
2022-10-23T04:42:16.783Z,101264.05
2022-10-23T04:43:19.856Z,101249.41
2022-10-23T04:44:22.842Z,101256.73
2022-10-23T04:45:26.694Z,101252.98
2022-10-23T04:46:29.813Z,101254.67
2022-10-23T04:47:32.936Z,101247.34
2022-10-23T04:48:36.026Z,101248.19
2022-10-23T04:49:59.096Z,101246.28
2022-10-23T04:51:13.209Z,101253.42
2022-10-23T04:52:30.053Z,101255.30
2022-10-23T04:53:38.661Z,101249.00
2022-10-23T04:54:49.711Z,101251.73
2022-10-23T04:56:06.822Z,101245.47
2022-10-23T04:57:14.462Z,101254.45
2022-10-23T04:58:19.947Z,101251.73
2022-10-23T04:59:22.946Z,101258.87
2022-10-23T05:00:26.354Z,101251.54
2022-10-23T05:01:31.090Z,101247.78
2022-10-23T05:02:34.487Z,101254.08
2022-10-23T05:03:38.015Z,101252.20
2022-10-23T05:04:40.958Z,101263.73
2022-10-23T05:06:04.943Z,101264.58
2022-10-23T05:08:29.856Z,101257.91
2022-10-23T05:11:03.638Z,101250.91
2022-10-23T05:12:15.555Z,101257.51
2022-10-23T05:13:19.500Z,101257.51
2022-10-23T05:14:22.993Z,101258.35
2022-10-23T05:15:26.049Z,101263.61
2022-10-23T05:16:41.246Z,101260.89
2022-10-23T05:17:47.757Z,101258.83
2022-10-23T05:18:51.041Z,101263.03
2022-10-23T05:19:55.676Z,101256.55
2022-10-23T05:21:08.074Z,101252.60
2022-10-23T05:22:13.164Z,101261.59
2022-10-23T05:23:26.047Z,101249.66
2022-10-23T05:24:31.005Z,101242.98
2022-10-23T05:25:36.007Z,101245.53
2022-10-23T05:26:40.852Z,101239.02
2022-10-23T05:27:44.574Z,101249.57
2022-10-23T05:28:49.307Z,101243.94
2022-10-23T05:29:54.101Z,101249.16
2022-10-23T05:31:01.705Z,101249.83
2022-10-23T05:32:08.402Z,101251.30
2022-10-23T05:33:11.795Z,101250.48
2022-10-23T05:34:19.344Z,101252.80
2022-10-23T05:35:23.502Z,101243.41
2022-10-23T05:36:27.378Z,101248.63
2022-10-23T05:37:32.537Z,101244.88
2022-10-23T05:38:43.501Z,101255.40
2022-10-23T05:39:48.370Z,101256.02
2022-10-23T05:40:53.251Z,101249.35
2022-10-23T05:41:58.114Z,101250.83
2022-10-23T05:43:01.284Z,101255.90
2022-10-23T05:44:06.248Z,101258.41
2022-10-23T05:45:25.904Z,101249.00
2022-10-23T05:46:46.987Z,101256.77
2022-10-23T05:47:53.117Z,101252.81
2022-10-23T05:49:03.961Z,101252.62
2022-10-23T05:50:15.208Z,101261.44
2022-10-23T05:51:28.817Z,101254.94
2022-10-23T05:52:33.564Z,101263.78
2022-10-23T05:53:42.507Z,101251.84
2022-10-23T05:54:53.072Z,101255.19
2022-10-23T05:56:03.690Z,101255.00
2022-10-23T05:58:22.965Z,101245.56
2022-10-23T05:59:39.684Z,101257.13
2022-10-23T06:01:06.489Z,101245.17
2022-10-23T06:02:20.588Z,101249.38
2022-10-23T06:03:28.041Z,101246.45
2022-10-23T06:04:30.971Z,101244.19
2022-10-23T06:05:35.647Z,101252.15
2022-10-23T06:06:47.852Z,101252.61
2022-10-23T06:07:51.185Z,101247.77
2022-10-23T06:08:54.491Z,101245.70
2022-10-23T06:09:57.552Z,101252.62
2022-10-23T06:11:08.620Z,101257.89
2022-10-23T06:12:11.693Z,101251.39
2022-10-23T06:13:17.235Z,101254.78
2022-10-23T06:14:20.180Z,101252.86
2022-10-23T06:15:24.008Z,101249.09
2022-10-23T06:16:43.723Z,101253.71
2022-10-23T06:17:46.714Z,101247.41
2022-10-23T06:18:49.900Z,101250.13
2022-10-23T06:19:56.449Z,101253.71
2022-10-23T06:21:00.661Z,101253.71
2022-10-23T06:22:04.885Z,101246.59
2022-10-23T06:23:09.671Z,101248.25
2022-10-23T06:24:30.829Z,101248.06
2022-10-23T06:25:38.659Z,101245.33
2022-10-23T06:26:41.704Z,101250.59
2022-10-23T06:27:46.465Z,101240.72
2022-10-23T06:28:49.788Z,101245.14
2022-10-23T06:29:53.135Z,101241.56
2022-10-23T06:30:56.061Z,101243.25
2022-10-23T06:31:59.033Z,101241.38
2022-10-23T06:33:04.558Z,101239.48
2022-10-23T06:34:06.990Z,101237.80
2022-10-23T06:35:10.017Z,101235.06
2022-10-23T06:36:13.569Z,101230.45
2022-10-23T06:37:17.288Z,101233.19
2022-10-23T06:38:22.225Z,101233.19
2022-10-23T06:39:29.802Z,101222.27
2022-10-23T06:40:37.629Z,101230.45
2022-10-23T06:41:43.765Z,101228.58
2022-10-23T06:42:46.819Z,101227.73
2022-10-23T06:44:06.610Z,101230.45
2022-10-23T06:45:11.480Z,101219.31
2022-10-23T06:46:35.077Z,101228.34
2022-10-23T06:47:40.123Z,101224.77
2022-10-23T06:49:01.129Z,101221.00
2022-10-23T06:50:06.381Z,101213.86
2022-10-23T06:51:12.401Z,101218.28
2022-10-23T06:52:41.694Z,101223.73
2022-10-23T06:53:24.735Z,101215.74
2022-10-23T06:54:29.484Z,101219.55
2022-10-23T06:55:48.076Z,101213.23
2022-10-23T06:56:51.293Z,101219.55
2022-10-23T06:57:56.173Z,101210.51
2022-10-23T06:58:59.334Z,101214.28
2022-10-23T07:00:02.666Z,101211.55
2022-10-23T07:01:10.580Z,101210.70
2022-10-23T07:02:14.898Z,101205.25
2022-10-23T07:03:17.908Z,101205.89
2022-10-23T07:04:20.843Z,101210.51
2022-10-23T07:05:24.766Z,101204.02
2022-10-23T07:06:28.115Z,101205.67
2022-10-23T07:07:31.251Z,101197.48
2022-10-23T07:08:34.727Z,101211.78
2022-10-23T07:09:39.096Z,101201.52
2022-10-23T07:10:49.649Z,101197.94
2022-10-23T07:11:54.288Z,101198.79
2022-10-23T07:13:00.340Z,101199.63
2022-10-23T07:14:05.085Z,101202.36
2022-10-23T07:15:09.118Z,101200.45
2022-10-23T07:16:15.416Z,101196.67
2022-10-23T07:17:18.514Z,101198.56
2022-10-23T07:18:21.908Z,101198.36
2022-10-23T07:19:43.162Z,101188.30
2022-10-23T07:20:49.091Z,101197.13
2022-10-23T07:21:52.215Z,101197.98
2022-10-23T07:23:03.205Z,101197.13
2022-10-23T07:24:08.254Z,101195.25
2022-10-23T07:25:11.333Z,101191.67
2022-10-23T07:26:16.330Z,101195.25
2022-10-23T07:27:19.618Z,101198.59
2022-10-23T07:28:24.509Z,101196.71
2022-10-23T07:29:28.175Z,101193.78
2022-10-23T07:30:31.322Z,101195.25
2022-10-23T07:31:34.858Z,101188.55
2022-10-23T07:32:55.996Z,101188.36
2022-10-23T07:34:13.450Z,101185.41
2022-10-23T07:35:17.345Z,101187.94
2022-10-23T07:36:40.360Z,101191.31
2022-10-23T07:37:43.605Z,101182.89
2022-10-23T07:38:46.885Z,101182.50
2022-10-23T07:39:50.073Z,101187.54
2022-10-23T07:40:53.565Z,101180.84
2022-10-23T07:41:56.737Z,101185.03
2022-10-23T07:42:59.709Z,101183.59
2022-10-23T07:44:02.658Z,101179.59
2022-10-23T07:45:06.990Z,101186.55
2022-10-23T07:46:10.191Z,101179.81
2022-10-23T07:47:15.129Z,101174.16
2022-10-23T07:48:23.535Z,101181.11
2022-10-23T07:49:35.444Z,101181.52
2022-10-23T07:50:38.745Z,101185.72
2022-10-23T07:51:41.969Z,101174.59
2022-10-23T07:52:45.518Z,101175.23
2022-10-23T07:53:50.670Z,101172.31
2022-10-23T07:54:58.297Z,101175.85
2022-10-23T07:56:06.396Z,101170.19
2022-10-23T07:57:12.135Z,101165.20
2022-10-23T07:58:17.529Z,101173.81
2022-10-23T07:59:22.266Z,101169.00
2022-10-23T08:00:27.084Z,101166.03
2022-10-23T08:01:35.253Z,101164.98
2022-10-23T08:02:39.090Z,101165.63
2022-10-23T08:03:42.227Z,101158.89
2022-10-23T08:04:48.831Z,101161.42
2022-10-23T08:05:56.273Z,101166.69
2022-10-23T08:07:00.619Z,101166.45
2022-10-23T08:08:04.836Z,101155.52
2022-10-23T08:09:08.007Z,101155.52
2022-10-23T08:10:12.766Z,101152.59
2022-10-23T08:11:21.000Z,101156.17
2022-10-23T08:12:25.555Z,101154.08
2022-10-23T08:13:29.774Z,101153.00
2022-10-23T08:14:34.675Z,101151.11
2022-10-23T08:15:37.734Z,101159.95
2022-10-23T08:16:42.512Z,101155.97
2022-10-23T08:17:56.079Z,101148.58
2022-10-23T08:19:00.954Z,101153.84
2022-10-23T08:20:04.723Z,101153.65
2022-10-23T08:21:09.932Z,101155.95
2022-10-23T08:22:13.105Z,101151.97
2022-10-23T08:23:17.873Z,101151.53
2022-10-23T08:24:21.041Z,101150.28
2022-10-23T08:25:25.145Z,101153.66
2022-10-23T08:26:29.194Z,101157.00
2022-10-23T08:27:32.156Z,101147.55
2022-10-23T08:28:35.421Z,101148.16
2022-10-23T08:29:38.675Z,101143.97
2022-10-23T08:30:41.674Z,101151.73
2022-10-23T08:31:44.725Z,101147.75
2022-10-23T08:32:58.165Z,101149.20
2022-10-23T08:34:01.804Z,101149.00
2022-10-23T08:35:06.118Z,101144.98
2022-10-23T08:36:24.569Z,101146.45
2022-10-23T08:37:27.650Z,101143.52
2022-10-23T08:38:31.006Z,101142.44
2022-10-23T08:39:36.337Z,101134.67
2022-10-23T08:40:50.179Z,101134.67
2022-10-23T08:42:23.732Z,101144.32
2022-10-23T08:43:39.154Z,101146.86
2022-10-23T08:45:19.452Z,101135.70
2022-10-23T08:46:27.589Z,101136.31
2022-10-23T08:47:53.800Z,101138.00
2022-10-23T08:49:17.373Z,101130.84
2022-10-23T08:50:34.353Z,101131.69
2022-10-23T08:51:46.592Z,101132.53
2022-10-23T08:53:05.322Z,101128.75
2022-10-23T08:54:17.612Z,101133.38
2022-10-23T08:55:29.237Z,101127.48
2022-10-23T08:56:41.390Z,101117.39
2022-10-23T08:57:59.675Z,101119.89
2022-10-23T08:59:27.638Z,101117.99
2022-10-23T09:00:31.153Z,101115.26
2022-10-23T09:01:40.756Z,101111.47
2022-10-23T09:02:49.928Z,101111.47
2022-10-23T09:03:53.003Z,101103.90
2022-10-23T09:04:57.937Z,101112.11
2022-10-23T09:06:22.347Z,101104.50
2022-10-23T09:07:30.814Z,101114.40
2022-10-23T09:08:40.136Z,101103.45
2022-10-23T09:09:58.464Z,101104.09
2022-10-23T09:11:04.997Z,101102.20
2022-10-23T09:12:11.432Z,101097.33
2022-10-23T09:13:29.980Z,101097.97
2022-10-23T09:14:42.314Z,101096.07
2022-10-23T09:15:48.817Z,101091.20
2022-10-23T09:17:01.461Z,101092.88
2022-10-23T09:18:08.002Z,101100.25
2022-10-23T09:19:19.460Z,101092.88
2022-10-23T09:20:25.950Z,101092.68
2022-10-23T09:21:29.521Z,101090.78
2022-10-23T09:22:32.649Z,101088.05
2022-10-23T09:23:35.929Z,101094.36
2022-10-23T09:24:42.427Z,101084.26
2022-10-23T09:25:47.481Z,101094.16
2022-10-23T09:26:52.365Z,101091.42
2022-10-23T09:28:00.163Z,101085.70
2022-10-23T09:29:09.422Z,101085.70
2022-10-23T09:30:16.837Z,101080.02
2022-10-23T09:31:19.963Z,101080.02
2022-10-23T09:32:34.878Z,101082.97
2022-10-23T09:33:37.959Z,101086.55
2022-10-23T09:34:53.773Z,101078.78
2022-10-23T09:36:02.394Z,101079.62
2022-10-23T09:37:26.417Z,101073.52
2022-10-23T09:38:35.205Z,101078.16
2022-10-23T09:39:38.231Z,101072.68
2022-10-23T09:40:43.096Z,101062.78
2022-10-23T09:41:46.071Z,101064.47
2022-10-23T09:42:54.946Z,101060.89
2022-10-23T09:44:03.778Z,101069.94
2022-10-23T09:45:10.513Z,101057.10
2022-10-23T09:46:14.157Z,101060.47
2022-10-23T09:47:20.149Z,101055.60
2022-10-23T09:48:23.051Z,101056.23
2022-10-23T09:49:28.694Z,101049.47
2022-10-23T09:50:32.036Z,101050.73
2022-10-23T09:51:35.148Z,101051.13
2022-10-23T09:52:39.186Z,101048.77
2022-10-23T09:53:51.644Z,101050.87
2022-10-23T09:54:57.916Z,101035.68
2022-10-23T09:56:04.467Z,101044.10
2022-10-23T09:57:32.399Z,101037.12
2022-10-23T09:58:38.889Z,101046.34
2022-10-23T09:59:42.485Z,101036.63
2022-10-23T10:00:47.411Z,101037.88
2022-10-23T10:01:54.157Z,101028.15
2022-10-23T10:03:20.482Z,101023.90
2022-10-23T10:04:39.854Z,101024.06
2022-10-23T10:05:43.944Z,101020.66
2022-10-23T10:06:52.454Z,101026.55
2022-10-23T10:08:13.990Z,101016.80
2022-10-23T10:09:17.666Z,101017.19
2022-10-23T10:10:21.100Z,101007.48
2022-10-23T10:11:31.328Z,101009.75
2022-10-23T10:12:43.821Z,101001.94
2022-10-23T10:14:11.489Z,101012.44
2022-10-23T10:15:24.043Z,101003.75
2022-10-23T10:16:30.708Z,101006.27
2022-10-23T10:17:49.345Z,100993.20
2022-10-23T10:19:18.446Z,100993.78
2022-10-23T10:20:44.475Z,100994.62
2022-10-23T10:21:57.111Z,100994.41
2022-10-23T10:23:12.476Z,100986.19
2022-10-23T10:24:27.648Z,100985.97
2022-10-23T10:25:37.012Z,100975.84
2022-10-23T10:26:55.659Z,100981.08
2022-10-23T10:28:24.747Z,100974.53
2022-10-23T10:29:42.712Z,100978.12
2022-10-23T10:30:58.116Z,100969.05
2022-10-23T10:32:21.424Z,100970.73
2022-10-23T10:33:44.299Z,100965.25
2022-10-23T10:35:07.187Z,100958.93
2022-10-23T10:36:14.298Z,100958.93
2022-10-23T10:37:37.387Z,100952.61
2022-10-23T10:38:46.869Z,100956.41
2022-10-23T10:39:53.403Z,100956.41
2022-10-23T10:41:08.651Z,100949.28
2022-10-23T10:42:37.932Z,100946.75
2022-10-23T10:43:47.373Z,100945.07
2022-10-23T10:44:56.666Z,100951.02
2022-10-23T10:46:08.893Z,100944.08
2022-10-23T10:47:33.644Z,100947.03
2022-10-23T10:48:42.943Z,100944.55
2022-10-23T10:50:32.875Z,100943.08
2022-10-23T10:52:09.462Z,100941.87
2022-10-23T10:53:22.797Z,100938.97
2022-10-23T10:54:47.823Z,100937.72
2022-10-23T10:55:54.055Z,100935.67
2022-10-23T10:56:59.861Z,100935.30
2022-10-23T10:58:12.366Z,100945.03
2022-10-23T10:59:30.501Z,100933.67
2022-10-23T11:00:34.982Z,100935.19
2022-10-23T11:01:44.606Z,100933.97
2022-10-23T11:02:50.855Z,100935.48
2022-10-23T11:04:03.067Z,100939.50
2022-10-23T11:05:18.499Z,100936.38
2022-10-23T11:06:24.735Z,100930.50
2022-10-23T11:07:31.139Z,100933.70
2022-10-23T11:08:49.989Z,100934.12
2022-10-23T11:09:45.161Z,100931.01
2022-10-23T11:10:54.555Z,100929.53
2022-10-23T11:11:57.604Z,100929.13
2022-10-23T11:13:00.529Z,100928.50
2022-10-23T11:14:03.716Z,100919.69
2022-10-23T11:15:12.230Z,100923.48
2022-10-23T11:16:33.887Z,100922.85
2022-10-23T11:17:43.571Z,100916.78
2022-10-23T11:18:52.895Z,100912.36
2022-10-23T11:20:08.196Z,100918.05
2022-10-23T11:21:21.151Z,100918.30
2022-10-23T11:22:33.748Z,100912.82
2022-10-23T11:25:33.549Z,100908.61
2022-10-23T11:27:00.374Z,100917.05
2022-10-23T11:28:21.704Z,100909.89
2022-10-23T11:29:46.483Z,100909.08
2022-10-23T11:30:59.053Z,100904.41
2022-10-23T11:32:21.888Z,100904.66
2022-10-23T11:33:48.254Z,100905.50
2022-10-23T11:36:22.798Z,100904.16
2022-10-23T11:37:26.381Z,100897.72
2022-10-23T11:38:35.131Z,100900.45
2022-10-23T11:39:39.839Z,100899.86
2022-10-23T11:42:06.260Z,100898.17
2022-10-23T11:43:09.432Z,100895.44
2022-10-23T11:44:48.600Z,100900.91
2022-10-23T11:45:53.752Z,100893.75
2022-10-23T11:47:02.170Z,100894.59
2022-10-23T11:48:20.532Z,100892.07
2022-10-23T11:49:23.614Z,100897.55
2022-10-23T11:50:30.468Z,100883.02
2022-10-23T11:51:41.028Z,100887.44
2022-10-23T11:53:12.775Z,100891.02
2022-10-23T11:54:14.574Z,100880.07
2022-10-23T11:55:23.877Z,100884.48
2022-10-23T11:56:27.589Z,100882.80
2022-10-23T11:57:31.971Z,100881.75
2022-10-23T11:58:52.970Z,100883.65
2022-10-23T11:59:56.617Z,100880.91
2022-10-23T12:01:03.226Z,100875.44
2022-10-23T12:02:31.219Z,100872.91
2022-10-23T12:03:55.843Z,100873.97
2022-10-23T12:05:09.526Z,100875.27
2022-10-23T12:06:23.164Z,100878.22
2022-10-23T12:07:32.579Z,100873.80
2022-10-23T12:08:39.270Z,100878.67
2022-10-23T12:09:45.616Z,100873.20
2022-10-23T12:10:54.699Z,100867.73
2022-10-23T12:12:04.221Z,100868.55
2022-10-23T12:13:28.721Z,100868.79
2022-10-23T12:15:57.132Z,100880.28
2022-10-23T12:17:00.338Z,100873.84
2022-10-23T12:18:17.326Z,100873.84
2022-10-23T12:19:23.553Z,100872.41
2022-10-23T12:20:38.831Z,100875.35
2022-10-23T12:21:41.736Z,100875.56
2022-10-23T12:22:48.197Z,100876.65
2022-10-23T12:24:03.420Z,100868.87
2022-10-23T12:25:18.624Z,100876.45
2022-10-23T12:26:37.552Z,100868.70
2022-10-23T12:28:02.648Z,100872.70
2022-10-23T12:29:28.882Z,100866.84
2022-10-23T12:30:35.295Z,100862.88
2022-10-23T12:31:48.233Z,100861.65
2022-10-23T12:32:57.441Z,100861.02
2022-10-23T12:34:15.946Z,100859.79
2022-10-23T12:35:34.371Z,100858.11
2022-10-23T12:36:52.892Z,100862.73
2022-10-23T12:38:20.420Z,100850.33
2022-10-23T12:39:29.451Z,100850.57
2022-10-23T12:40:32.538Z,100860.66
2022-10-23T12:41:38.145Z,100856.25
2022-10-23T12:42:43.475Z,100851.62
2022-10-23T12:43:53.461Z,100842.58
2022-10-23T12:45:12.181Z,100846.16
2022-10-23T12:46:38.159Z,100840.47
2022-10-23T12:47:44.023Z,100838.79
2022-10-23T12:48:49.565Z,100828.91
2022-10-23T12:49:52.656Z,100826.17
2022-10-23T12:50:56.340Z,100822.59
2022-10-23T12:52:04.890Z,100811.66
2022-10-23T12:53:11.383Z,100815.45
2022-10-23T12:54:17.596Z,100809.98
2022-10-23T12:55:21.812Z,100813.77
2022-10-23T12:56:32.967Z,100799.29
2022-10-23T12:57:42.093Z,100796.77
2022-10-23T12:58:51.479Z,100787.94
2022-10-23T13:00:01.883Z,100786.25
2022-10-23T13:01:06.448Z,100785.66
2022-10-23T13:02:27.801Z,100781.24
2022-10-23T13:03:32.935Z,100787.77
2022-10-23T13:04:37.347Z,100789.86
2022-10-23T13:05:40.464Z,100782.96
2022-10-23T13:06:44.047Z,100795.78
2022-10-23T13:07:48.095Z,100796.84
2022-10-23T13:08:53.360Z,100790.77
2022-10-23T13:10:09.156Z,100795.40
2022-10-23T13:12:33.994Z,100798.06
2022-10-23T13:13:39.073Z,100796.87
2022-10-23T13:14:45.728Z,100797.95
2022-10-23T13:15:48.889Z,100799.21
2022-10-23T13:17:01.253Z,100792.91
2022-10-23T13:18:06.532Z,100800.47
2022-10-23T13:19:24.100Z,100791.67